Time;durP1;ratioP1;P1;durP2;ratioP2;P2;SDS_P1;SDS_P2;PMS_P1;PMS_P2;Temp;Humidity;BMP_temperature;BMP_pressure;BME280_temperature;BME280_humidity;BME280_pressure;Samples;Min_cycle;Max_cycle;Signal;HPM_P1;HPM_P2
2021/05/09 00:01:53;;;;;;;11.50;9.03;;;12.00;91.60;;;;;;5133674;27;20513;-73
2021/05/09 00:04:19;;;;;;;10.60;9.50;;;11.90;91.70;;;;;;5134328;27;20146;-73
2021/05/09 00:06:49;;;;;;;9.23;8.13;;;11.90;91.80;;;;;;5134091;27;20398;-73
2021/05/09 00:09:15;;;;;;;10.37;8.70;;;11.80;91.90;;;;;;5133412;27;20495;-72
2021/05/09 00:11:41;;;;;;;9.77;8.63;;;11.70;92.00;;;;;;5134173;27;20050;-72
2021/05/09 00:14:06;;;;;;;10.47;8.63;;;11.60;92.10;;;;;;5134470;27;20518;-73
2021/05/09 00:16:37;;;;;;;12.97;10.40;;;11.60;92.30;;;;;;5133405;27;20095;-72
2021/05/09 00:19:04;;;;;;;13.40;9.80;;;11.50;92.40;;;;;;5134271;27;20050;-72
2021/05/09 00:21:30;;;;;;;13.63;10.07;;;11.40;92.50;;;;;;5134273;27;20122;-72
2021/05/09 00:23:56;;;;;;;9.47;8.20;;;11.30;92.60;;;;;;5133103;27;20487;-72
2021/05/09 00:26:22;;;;;;;12.03;8.63;;;11.30;92.70;;;;;;5133873;27;20047;-73
2021/05/09 00:28:48;;;;;;;13.50;10.03;;;11.20;92.80;;;;;;5133355;27;20055;-72
2021/05/09 00:31:14;;;;;;;10.33;9.23;;;11.20;92.90;;;;;;5133985;27;20046;-72
2021/05/09 00:33:40;;;;;;;11.53;10.33;;;11.30;93.00;;;;;;5133850;27;20047;-72
2021/05/09 00:36:06;;;;;;;12.40;9.80;;;11.40;93.40;;;;;;5132930;27;20051;-72
2021/05/09 00:38:32;;;;;;;10.97;9.97;;;11.40;93.00;;;;;;5133878;27;20065;-72
2021/05/09 00:40:58;;;;;;;12.13;9.63;;;11.40;93.00;;;;;;5132767;27;20475;-72
2021/05/09 00:43:24;;;;;;;13.27;9.93;;;11.50;92.90;;;;;;5133114;27;20048;-72
2021/05/09 00:45:50;;;;;;;11.00;9.33;;;11.50;92.90;;;;;;5133822;27;20047;-72
2021/05/09 00:48:17;;;;;;;12.57;9.50;;;11.60;92.90;;;;;;5133356;27;20133;-72
2021/05/09 00:50:43;;;;;;;11.60;9.77;;;11.60;92.90;;;;;;5132684;27;20499;-72
2021/05/09 00:53:10;;;;;;;12.30;9.43;;;11.70;92.80;;;;;;5133669;27;20095;-72
2021/05/09 00:55:38;;;;;;;11.70;9.27;;;11.70;92.80;;;;;;5133245;27;20055;-72
2021/05/09 00:58:07;;;;;;;10.97;9.33;;;11.70;92.80;;;;;;5132330;27;20484;-72
2021/05/09 01:00:32;;;;;;;11.13;10.03;;;11.70;92.80;;;;;;5133448;27;20055;-72
2021/05/09 01:03:04;;;;;;;12.33;9.43;;;11.70;92.70;;;;;;5133360;27;20039;-72
2021/05/09 01:05:31;;;;;;;15.25;9.93;;;11.70;92.70;;;;;;5132410;27;20491;-72
2021/05/09 01:07:57;;;;;;;10.57;8.93;;;11.70;93.10;;;;;;5133645;27;20043;-72
2021/05/09 01:10:23;;;;;;;11.23;8.67;;;11.80;92.80;;;;;;5133234;27;20046;-73
2021/05/09 01:12:50;;;;;;;11.97;9.13;;;11.80;92.70;;;;;;5131999;27;20472;-72
2021/05/09 01:15:18;;;;;;;11.67;8.33;;;11.80;92.70;;;;;;5132971;27;20411;-73
2021/05/09 01:17:44;;;;;;;9.70;8.20;;;11.80;92.70;;;;;;5133121;27;20062;-73
2021/05/09 01:20:13;;;;;;;11.47;8.33;;;11.80;92.60;;;;;;5132665;27;20039;-72
2021/05/09 01:22:42;;;;;;;9.63;8.55;;;11.80;92.70;;;;;;5132906;27;20043;-73
2021/05/09 01:25:08;;;;;;;10.13;8.83;;;11.80;92.60;;;;;;5132522;27;20450;-72
2021/05/09 01:27:35;;;;;;;10.93;8.93;;;11.80;92.60;;;;;;5132706;27;20376;-72
2021/05/09 01:30:07;;;;;;;10.07;9.03;;;11.90;92.60;;;;;;5132863;27;20058;-73
2021/05/09 01:32:36;;;;;;;15.40;8.77;;;11.90;92.60;;;;;;5132106;27;20047;-73
2021/05/09 01:35:01;;;;;;;10.87;8.50;;;11.90;92.60;;;;;;5132716;27;20134;-73
2021/05/09 01:37:27;;;;;;;10.63;8.30;;;11.80;92.60;;;;;;5132724;27;20419;-72
2021/05/09 01:39:53;;;;;;;12.70;9.03;;;11.80;92.60;;;;;;5131855;27;20124;-72
2021/05/09 01:42:19;;;;;;;14.37;9.37;;;11.80;92.60;;;;;;5132385;27;20479;-73
2021/05/09 01:44:51;;;;;;;9.93;8.20;;;11.80;92.60;;;;;;5132747;27;20047;-73
2021/05/09 01:47:17;;;;;;;12.70;8.53;;;11.80;92.70;;;;;;5131866;27;20043;-73
2021/05/09 01:49:43;;;;;;;9.77;7.60;;;11.80;92.70;;;;;;5132344;27;20057;-73
2021/05/09 01:52:09;;;;;;;9.37;7.83;;;11.80;92.70;;;;;;5131725;27;20043;-73
2021/05/09 01:54:34;;;;;;;10.50;8.17;;;11.70;92.70;;;;;;5131522;27;20055;-72
2021/05/09 01:57:00;;;;;;;9.77;8.53;;;11.80;92.70;;;;;;5132346;27;20448;-73
2021/05/09 01:59:26;;;;;;;15.40;8.53;;;11.80;92.70;;;;;;5132380;27;20046;-72
2021/05/09 02:01:51;;;;;;;12.10;8.17;;;11.80;92.60;;;;;;5131940;27;20559;-73
2021/05/09 02:04:17;;;;;;;13.13;8.83;;;11.80;92.70;;;;;;5132329;28;20035;-72
2021/05/09 02:06:52;;;;;;;9.30;8.20;;;11.80;92.60;;;;;;5132190;28;20073;-72
2021/05/09 02:09:18;;;;;;;11.13;7.60;;;11.80;92.60;;;;;;5131553;27;20039;-72
2021/05/09 02:11:44;;;;;;;10.17;7.37;;;11.80;92.60;;;;;;5131854;27;20066;-72
2021/05/09 02:14:10;;;;;;;9.93;8.00;;;11.80;92.50;;;;;;5131836;27;20051;-72
2021/05/09 02:16:36;;;;;;;13.23;8.83;;;11.80;92.50;;;;;;5132338;28;20395;-72
2021/05/09 02:19:02;;;;;;;9.73;7.83;;;11.80;92.50;;;;;;5132387;28;20112;-73
2021/05/09 02:21:28;;;;;;;11.47;7.57;;;11.80;92.50;;;;;;5131533;28;20044;-73
2021/05/09 02:23:54;;;;;;;10.17;8.23;;;11.80;92.50;;;;;;5132318;28;20043;-72
2021/05/09 02:26:19;;;;;;;10.77;8.00;;;11.80;92.50;;;;;;5131872;27;20070;-73
2021/05/09 02:28:45;;;;;;;12.73;8.90;;;11.80;92.50;;;;;;5131440;27;20388;-73
2021/05/09 02:31:11;;;;;;;11.40;7.80;;;11.80;92.40;;;;;;5132531;27;20096;-73
2021/05/09 02:33:37;;;;;;;11.53;8.63;;;11.80;92.40;;;;;;5132137;28;20044;-73
2021/05/09 02:36:03;;;;;;;10.07;7.50;;;11.80;92.40;;;;;;5131479;28;20433;-73
2021/05/09 02:38:33;;;;;;;10.17;7.77;;;11.80;92.30;;;;;;5132159;28;20174;-73
2021/05/09 02:40:59;;;;;;;9.30;7.47;;;11.80;92.30;;;;;;5131800;27;20556;-73
2021/05/09 02:43:24;;;;;;;10.03;7.67;;;11.80;92.40;;;;;;5131310;28;20051;-73
2021/05/09 02:45:50;;;;;;;8.90;6.97;;;11.80;92.30;;;;;;5131840;28;20344;-72
2021/05/09 02:48:16;;;;;;;11.83;7.70;;;11.80;92.30;;;;;;5131694;28;20043;-73
2021/05/09 02:50:41;;;;;;;10.77;7.63;;;11.80;92.30;;;;;;5130868;28;20055;-73
2021/05/09 02:53:07;;;;;;;9.07;7.40;;;11.80;92.30;;;;;;5131824;27;20511;-73
2021/05/09 02:55:33;;;;;;;11.17;8.13;;;11.80;92.30;;;;;;5131661;28;20086;-73
2021/05/09 02:57:58;;;;;;;12.03;8.13;;;11.70;92.30;;;;;;5131044;28;20043;-73
2021/05/09 03:00:24;;;;;;;12.83;7.67;;;11.70;92.30;;;;;;5132042;28;20043;-73
2021/05/09 03:02:49;;;;;;;11.23;8.67;;;11.70;92.30;;;;;;5132665;27;20054;-73
2021/05/09 03:05:18;;;;;;;11.00;7.73;;;11.60;92.30;;;;;;5134936;27;20507;-73
2021/05/09 03:07:43;;;;;;;10.90;7.80;;;11.70;92.30;;;;;;5135682;27;20168;-73
2021/05/09 03:10:10;;;;;;;10.37;8.20;;;11.60;92.40;;;;;;5135871;27;20050;-73
2021/05/09 03:12:36;;;;;;;10.80;7.30;;;11.60;92.50;;;;;;5134657;27;20050;-73
2021/05/09 03:15:01;;;;;;;9.87;7.87;;;11.50;92.40;;;;;;5135401;27;20124;-73
2021/05/09 03:17:27;;;;;;;11.70;7.10;;;11.50;92.40;;;;;;5134777;27;20483;-73
2021/05/09 03:19:52;;;;;;;12.03;7.70;;;11.50;92.50;;;;;;5135513;27;20383;-73
2021/05/09 03:22:18;;;;;;;9.73;7.27;;;11.50;92.40;;;;;;5135059;27;20511;-73
2021/05/09 03:24:44;;;;;;;11.67;7.30;;;11.50;92.30;;;;;;5134644;27;20096;-72
2021/05/09 03:27:09;;;;;;;11.77;7.27;;;11.50;92.30;;;;;;5135431;27;20107;-73
2021/05/09 03:29:35;;;;;;;11.43;7.97;;;11.50;92.30;;;;;;5135217;27;20066;-73
2021/05/09 03:32:00;;;;;;;9.30;7.13;;;11.50;92.20;;;;;;5134480;27;20047;-72
2021/05/09 03:34:26;;;;;;;11.13;7.57;;;11.50;92.20;;;;;;5134961;27;20051;-73
2021/05/09 03:36:52;;;;;;;10.13;7.53;;;11.50;92.20;;;;;;5135075;27;20134;-72
2021/05/09 03:39:17;;;;;;;13.07;7.83;;;11.50;92.30;;;;;;5133898;27;20058;-72
2021/05/09 03:41:44;;;;;;;9.33;6.80;;;11.50;92.20;;;;;;5132174;27;20495;-72
2021/05/09 03:44:09;;;;;;;10.70;7.53;;;11.50;92.20;;;;;;5134778;27;20092;-72
2021/05/09 03:46:35;;;;;;;8.80;7.17;;;11.50;92.20;;;;;;5133886;27;20035;-72
2021/05/09 03:49:01;;;;;;;12.43;7.57;;;11.50;92.10;;;;;;5134759;27;20507;-73
2021/05/09 03:51:26;;;;;;;11.33;7.17;;;11.50;92.10;;;;;;5134361;27;20045;-72
2021/05/09 03:53:52;;;;;;;10.63;7.60;;;11.50;92.10;;;;;;5133623;27;20054;-73
2021/05/09 03:56:18;;;;;;;10.47;7.70;;;11.50;92.00;;;;;;5134301;27;20060;-72
2021/05/09 03:58:46;;;;;;;11.27;7.73;;;11.60;92.00;;;;;;5133612;27;20055;-72
2021/05/09 04:01:11;;;;;;;10.50;6.73;;;11.60;92.00;;;;;;5132524;27;20043;-72
2021/05/09 04:03:37;;;;;;;9.83;7.10;;;11.60;91.90;;;;;;5134415;27;20487;-72
2021/05/09 04:06:03;;;;;;;8.37;7.00;;;11.60;91.90;;;;;;5133979;27;20051;-73
2021/05/09 04:08:29;;;;;;;10.00;6.93;;;11.60;91.90;;;;;;5133685;27;20126;-72
2021/05/09 04:10:56;;;;;;;9.77;7.17;;;11.60;91.90;;;;;;5134059;27;20179;-72
2021/05/09 04:13:23;;;;;;;9.13;7.07;;;11.60;91.90;;;;;;5132730;27;20057;-72
2021/05/09 04:15:49;;;;;;;8.37;6.47;;;11.60;91.90;;;;;;5130334;27;20047;-72
2021/05/09 04:18:15;;;;;;;9.47;6.97;;;11.60;91.90;;;;;;5133731;27;20091;-72
2021/05/09 04:20:41;;;;;;;9.50;7.20;;;11.60;91.80;;;;;;5134214;27;20043;-72
2021/05/09 04:23:08;;;;;;;9.23;7.23;;;11.60;91.80;;;;;;5133838;27;20058;-72
2021/05/09 04:25:33;;;;;;;7.73;6.37;;;11.70;91.90;;;;;;5132982;27;20093;-73
2021/05/09 04:28:00;;;;;;;10.97;6.47;;;11.70;91.80;;;;;;5132725;27;20054;-73
2021/05/09 04:30:27;;;;;;;10.00;6.53;;;11.80;91.60;;;;;;5133726;27;20062;-72
2021/05/09 04:33:02;;;;;;;12.07;6.70;;;11.80;91.50;;;;;;5133880;27;20043;-72
2021/05/09 04:35:28;;;;;;;9.67;6.40;;;11.90;91.50;;;;;;5133198;27;20054;-72
2021/05/09 04:37:54;;;;;;;10.60;6.70;;;11.90;91.50;;;;;;5133590;27;20121;-73
2021/05/09 04:40:20;;;;;;;13.03;7.00;;;12.00;91.40;;;;;;5133739;27;20130;-72
2021/05/09 04:42:47;;;;;;;12.60;5.87;;;12.00;91.30;;;;;;5132890;27;20055;-72
2021/05/09 04:45:13;;;;;;;9.50;6.03;;;12.10;91.30;;;;;;5133467;27;20092;-72
2021/05/09 04:47:39;;;;;;;9.13;6.03;;;12.10;91.20;;;;;;5133874;27;20058;-72
2021/05/09 04:50:06;;;;;;;8.90;6.03;;;12.20;91.20;;;;;;5130384;27;20479;-72
2021/05/09 04:52:32;;;;;;;10.47;6.47;;;12.30;91.10;;;;;;5133087;27;20085;-72
2021/05/09 04:54:58;;;;;;;9.67;6.20;;;12.30;91.40;;;;;;5133044;27;20122;-72
2021/05/09 04:57:23;;;;;;;9.90;6.13;;;12.40;90.90;;;;;;5132508;27;20118;-71
2021/05/09 04:59:49;;;;;;;7.77;6.10;;;12.50;90.80;;;;;;5133119;27;20051;-72
2021/05/09 05:02:15;;;;;;;9.23;5.83;;;12.60;90.70;;;;;;5132784;27;20043;-72
2021/05/09 05:04:41;;;;;;;10.73;5.20;;;12.70;90.60;;;;;;5131719;27;20065;-72
2021/05/09 05:07:07;;;;;;;6.97;5.60;;;12.80;90.50;;;;;;5131675;27;20513;-72
2021/05/09 05:09:32;;;;;;;10.53;5.63;;;12.90;90.40;;;;;;5131388;27;20119;-72
2021/05/09 05:11:58;;;;;;;8.77;5.30;;;13.10;90.20;;;;;;5129913;27;20047;-72
2021/05/09 05:14:23;;;;;;;9.60;5.27;;;13.30;90.00;;;;;;5132789;27;20050;-71
2021/05/09 05:16:49;;;;;;;10.57;5.73;;;13.50;89.50;;;;;;5132860;27;20036;-72
2021/05/09 05:19:15;;;;;;;7.97;5.43;;;13.60;88.90;;;;;;5132139;27;20050;-72
2021/05/09 05:21:41;;;;;;;7.50;5.60;;;13.70;88.50;;;;;;5132589;27;20061;-73
2021/05/09 05:24:08;;;;;;;9.43;5.43;;;13.90;88.50;;;;;;5131936;27;20138;-72
2021/05/09 05:26:34;;;;;;;6.53;4.60;;;14.10;88.40;;;;;;5132013;27;20039;-72
2021/05/09 05:29:00;;;;;;;7.83;5.07;;;14.50;87.40;;;;;;5132510;27;20445;-74
2021/05/09 05:31:26;;;;;;;6.50;4.73;;;14.90;86.60;;;;;;5131646;27;20099;-74
2021/05/09 05:33:52;;;;;;;8.30;4.63;;;15.40;85.40;;;;;;5132461;27;20054;-74
2021/05/09 05:36:18;;;;;;;10.03;4.73;;;15.60;83.50;;;;;;5131074;27;20555;-75
2021/05/09 05:38:45;;;;;;;7.50;4.70;;;15.70;83.20;;;;;;5131070;27;20080;-76
2021/05/09 05:41:10;;;;;;;7.10;4.93;;;15.70;82.30;;;;;;5132901;27;20043;-74
2021/05/09 05:43:37;;;;;;;8.67;4.90;;;15.80;82.20;;;;;;5132391;27;20051;-74
2021/05/09 05:46:03;;;;;;;7.73;5.03;;;15.90;81.20;;;;;;5131868;27;20046;-75
2021/05/09 05:48:29;;;;;;;9.40;5.10;;;16.00;81.10;;;;;;5132510;27;20472;-74
2021/05/09 05:50:56;;;;;;;8.80;4.63;;;16.00;81.00;;;;;;5132418;27;20112;-74
2021/05/09 05:53:24;;;;;;;8.87;4.37;;;16.10;80.80;;;;;;5131441;27;20510;-74
2021/05/09 05:55:50;;;;;;;6.83;4.30;;;16.20;80.30;;;;;;5132106;27;20134;-75
2021/05/09 05:58:17;;;;;;;7.20;4.50;;;16.40;79.60;;;;;;5132543;27;20047;-75
2021/05/09 06:00:44;;;;;;;8.10;5.13;;;16.50;79.10;;;;;;5131859;27;20130;-75
2021/05/09 06:03:10;;;;;;;6.93;4.70;;;16.60;79.60;;;;;;5132988;27;20050;-75
2021/05/09 06:05:35;;;;;;;8.40;4.43;;;16.60;78.00;;;;;;5132488;28;20071;-75
2021/05/09 06:08:01;;;;;;;7.30;4.73;;;16.70;78.00;;;;;;5131794;28;20077;-75
2021/05/09 06:10:27;;;;;;;7.13;4.37;;;16.70;77.70;;;;;;5132291;27;20051;-75
2021/05/09 06:12:56;;;;;;;7.07;4.23;;;16.70;77.40;;;;;;5132074;28;20103;-75
2021/05/09 06:15:22;;;;;;;7.83;4.63;;;16.70;77.40;;;;;;5131449;27;20388;-74
2021/05/09 06:17:48;;;;;;;6.53;3.63;;;16.60;77.50;;;;;;5132558;28;20099;-75
2021/05/09 06:20:14;;;;;;;7.83;4.20;;;16.50;77.40;;;;;;5132809;28;20039;-75
2021/05/09 06:22:40;;;;;;;8.37;5.03;;;16.30;77.50;;;;;;5131763;28;20050;-75
2021/05/09 06:25:06;;;;;;;8.20;4.53;;;16.20;77.40;;;;;;5132460;27;20044;-74
2021/05/09 06:27:32;;;;;;;7.90;4.47;;;16.30;77.60;;;;;;5131515;28;20055;-75
2021/05/09 06:29:58;;;;;;;7.47;4.33;;;16.50;77.50;;;;;;5131997;27;20399;-75
2021/05/09 06:32:23;;;;;;;9.67;4.40;;;16.60;77.20;;;;;;5131908;27;20043;-75
2021/05/09 06:34:49;;;;;;;6.70;4.50;;;16.90;77.70;;;;;;5131463;28;20047;-75
2021/05/09 06:37:15;;;;;;;8.03;4.63;;;17.20;75.90;;;;;;5131978;27;20043;-75
2021/05/09 06:39:41;;;;;;;7.73;4.17;;;17.40;75.10;;;;;;5136200;27;20046;-75
2021/05/09 06:42:07;;;;;;;6.10;4.03;;;17.40;75.00;;;;;;5135617;27;20054;-75
2021/05/09 06:44:42;;;;;;;5.93;4.30;;;17.50;75.20;;;;;;5135837;27;20499;-77
2021/05/09 06:47:07;;;;;;;6.87;4.13;;;17.60;74.10;;;;;;5136263;27;20043;-76
2021/05/09 06:49:33;;;;;;;7.10;4.30;;;17.70;74.50;;;;;;5135375;27;20475;-75
2021/05/09 06:51:59;;;;;;;6.93;4.17;;;17.60;74.20;;;;;;5135510;27;20510;-75
2021/05/09 06:54:25;;;;;;;7.20;4.37;;;17.70;74.60;;;;;;5135464;27;20085;-75
2021/05/09 06:56:52;;;;;;;7.90;4.50;;;17.90;74.10;;;;;;5134724;27;20039;-74
2021/05/09 06:59:18;;;;;;;8.37;3.87;;;17.80;72.80;;;;;;5135951;27;20047;-74
2021/05/09 07:01:45;;;;;;;8.47;4.40;;;17.90;73.40;;;;;;5135536;27;20479;-74
2021/05/09 07:04:11;;;;;;;7.20;4.53;;;18.00;72.90;;;;;;5135310;27;20088;-75
2021/05/09 07:06:36;;;;;;;5.40;4.20;;;18.20;72.60;;;;;;5135359;27;20043;-74
2021/05/09 07:09:08;;;;;;;7.30;4.67;;;18.20;72.10;;;;;;5135241;27;20074;-74
2021/05/09 07:11:34;;;;;;;6.80;4.20;;;18.40;71.60;;;;;;5134688;27;20066;-74
2021/05/09 07:14:00;;;;;;;9.57;4.33;;;18.50;71.40;;;;;;5135082;27;20059;-74
2021/05/09 07:16:26;;;;;;;9.47;4.40;;;18.50;71.10;;;;;;5135233;27;20118;-75
2021/05/09 07:18:52;;;;;;;11.50;4.63;;;18.40;70.50;;;;;;5134418;27;20415;-75
2021/05/09 07:21:24;;;;;;;7.17;4.37;;;18.40;70.80;;;;;;5135331;27;20071;-74
2021/05/09 07:23:50;;;;;;;6.80;4.50;;;18.50;70.80;;;;;;5134231;27;20047;-75
2021/05/09 07:26:16;;;;;;;7.33;4.50;;;18.50;70.60;;;;;;5134862;27;20054;-74
2021/05/09 07:28:41;;;;;;;6.87;4.70;;;18.50;70.50;;;;;;5134771;27;20119;-75
2021/05/09 07:31:07;;;;;;;8.63;4.60;;;18.40;70.00;;;;;;5134553;27;20047;-75
2021/05/09 07:33:33;;;;;;;7.13;4.70;;;18.40;69.80;;;;;;5134665;27;20471;-75
2021/05/09 07:35:59;;;;;;;7.83;4.57;;;18.30;70.10;;;;;;5134780;27;20047;-75
2021/05/09 07:38:25;;;;;;;7.67;4.20;;;18.20;69.90;;;;;;5134350;27;20046;-75
2021/05/09 07:40:51;;;;;;;6.40;4.13;;;18.20;70.30;;;;;;5134748;27;20043;-75
2021/05/09 07:43:16;;;;;;;9.33;4.93;;;18.10;70.10;;;;;;5134918;27;20053;-75
2021/05/09 07:45:44;;;;;;;7.13;4.13;;;18.00;70.00;;;;;;5133924;27;20465;-74
2021/05/09 07:48:10;;;;;;;7.27;4.40;;;18.00;69.90;;;;;;5134980;27;20103;-75
2021/05/09 07:50:36;;;;;;;6.73;4.50;;;17.90;70.20;;;;;;5134750;27;20096;-75
2021/05/09 07:53:03;;;;;;;7.27;4.20;;;17.90;70.40;;;;;;5133350;27;20051;-74
2021/05/09 07:55:29;;;;;;;6.83;4.27;;;17.90;70.80;;;;;;5134324;27;20158;-73
2021/05/09 07:57:56;;;;;;;6.50;4.03;;;18.00;70.60;;;;;;5134498;27;20108;-73
2021/05/09 08:00:22;;;;;;;5.80;3.73;;;18.00;70.60;;;;;;5133995;27;20051;-73
2021/05/09 08:02:49;;;;;;;8.27;3.67;;;18.10;70.60;;;;;;5134246;27;20416;-73
2021/05/09 08:05:20;;;;;;;6.17;3.90;;;18.10;70.20;;;;;;5134385;27;20133;-75
2021/05/09 08:07:53;;;;;;;5.23;3.93;;;18.20;70.50;;;;;;5133678;27;20491;-75
2021/05/09 08:10:20;;;;;;;6.50;3.50;;;18.50;70.50;;;;;;5134467;27;20051;-75
2021/05/09 08:12:46;;;;;;;6.90;3.10;;;18.80;70.80;;;;;;5134076;27;20051;-76
2021/05/09 08:15:13;;;;;;;4.57;3.13;;;19.10;69.70;;;;;;5133947;27;20479;-74
2021/05/09 08:17:39;;;;;;;3.93;2.57;;;19.30;68.80;;;;;;5134281;27;20126;-75
2021/05/09 08:20:06;;;;;;;6.27;2.50;;;19.50;67.80;;;;;;5133479;27;20506;-73
2021/05/09 08:22:32;;;;;;;9.57;3.37;;;19.80;67.60;;;;;;5133966;27;20050;-74
2021/05/09 08:24:58;;;;;;;3.70;2.73;;;20.00;66.60;;;;;;5134154;27;20046;-74
2021/05/09 08:27:24;;;;;;;6.43;2.37;;;20.30;66.30;;;;;;5132982;27;20107;-76
2021/05/09 08:29:52;;;;;;;8.77;2.53;;;20.60;65.70;;;;;;5133815;27;20058;-75
2021/05/09 08:32:17;;;;;;;6.47;2.70;;;20.80;65.40;;;;;;5133638;27;20043;-75
2021/05/09 08:34:43;;;;;;;4.30;2.25;;;21.10;64.10;;;;;;5132773;27;20410;-77
2021/05/09 08:37:08;;;;;;;3.85;2.13;;;21.20;63.60;;;;;;5133732;27;20096;-75
2021/05/09 08:39:35;;;;;;;3.95;2.30;;;21.40;63.00;;;;;;5133927;27;20096;-75
2021/05/09 08:42:01;;;;;;;4.22;2.10;;;21.50;62.80;;;;;;5133117;27;20079;-74
2021/05/09 08:44:27;;;;;;;4.65;2.40;;;21.70;61.40;;;;;;5133724;27;20089;-76
2021/05/09 08:46:54;;;;;;;6.13;2.17;;;21.80;61.00;;;;;;5133020;27;20449;-74
2021/05/09 08:49:21;;;;;;;4.07;2.45;;;22.00;60.40;;;;;;5132871;27;20488;-74
2021/05/09 08:51:46;;;;;;;4.13;1.77;;;22.10;59.90;;;;;;5133211;27;20070;-76
2021/05/09 08:54:12;;;;;;;4.65;2.30;;;22.10;58.90;;;;;;5133736;27;20504;-78
2021/05/09 08:56:38;;;;;;;4.18;2.03;;;22.20;58.40;;;;;;5132844;27;20096;-76
2021/05/09 08:59:05;;;;;;;6.80;2.10;;;22.20;57.80;;;;;;5133403;27;20043;-74
2021/05/09 09:01:31;;;;;;;3.83;1.90;;;22.30;57.80;;;;;;5132926;27;20423;-77
2021/05/09 09:03:57;;;;;;;6.88;2.30;;;22.40;58.20;;;;;;5132364;27;20483;-75
2021/05/09 09:06:42;;;;;;;2.70;1.58;;;22.60;57.00;;;;;;5133299;27;20046;-76
2021/05/09 09:09:21;;;;;;;2.80;1.40;;;22.60;53.50;;;;;;5132809;27;20051;-72
2021/05/09 09:11:56;;;;;;;3.83;1.60;;;22.60;53.50;;;;;;5133011;27;20125;-73
2021/05/09 09:14:25;;;;;;;5.25;1.67;;;22.80;54.30;;;;;;5132786;27;20051;-73
2021/05/09 09:17:18;;;;;;;3.58;1.80;;;23.10;54.40;;;;;;5132022;27;20043;-73
2021/05/09 09:20:08;;;;;;;4.38;1.70;;;23.30;53.60;;;;;;5130139;27;20133;-76
2021/05/09 09:22:59;;;;;;;4.50;1.67;;;23.30;53.20;;;;;;5132732;27;20506;-76
2021/05/09 09:25:33;;;;;;;3.67;1.58;;;23.00;52.60;;;;;;5132276;27;20051;-75
2021/05/09 09:28:00;;;;;;;3.05;1.55;;;22.70;53.10;;;;;;5132352;27;20126;-75
2021/05/09 09:30:28;;;;;;;5.70;1.88;;;22.40;53.50;;;;;;5131871;27;20051;-74
2021/05/09 09:33:13;;;;;;;2.75;1.42;;;22.10;53.60;;;;;;5132420;27;20130;-75
2021/05/09 09:35:39;;;;;;;3.28;1.67;;;21.80;53.80;;;;;;5132979;27;20480;-76
2021/05/09 09:38:28;;;;;;;3.47;1.70;;;21.60;54.30;;;;;;5131833;27;20050;-74
2021/05/09 09:41:17;;;;;;;3.80;1.40;;;21.30;54.40;;;;;;5132556;27;20394;-72
2021/05/09 09:43:59;;;;;;;3.70;1.87;;;21.00;55.50;;;;;;5132277;27;20050;-72
2021/05/09 09:46:30;;;;;;;3.30;1.83;;;20.70;56.70;;;;;;5131679;27;20047;-72
2021/05/09 09:48:56;;;;;;;;;;;20.50;59.10;;;;;;5132759;27;20088;-72
2021/05/09 09:51:22;;;;;;;5.40;2.30;;;20.20;60.60;;;;;;5131650;27;19923;-74
2021/05/09 09:53:48;;;;;;;4.83;1.87;;;19.90;61.00;;;;;;5132356;27;20077;-72
2021/05/09 09:56:15;;;;;;;3.07;2.40;;;19.70;62.50;;;;;;5131835;27;20054;-72
2021/05/09 09:59:05;;;;;;;4.43;2.17;;;19.40;65.30;;;;;;5131565;27;20054;-73
2021/05/09 10:01:37;;;;;;;4.57;2.60;;;18.90;70.90;;;;;;5132181;27;20047;-72
2021/05/09 10:04:05;;;;;;;4.43;2.47;;;18.50;70.30;;;;;;5126620;27;20116;-72
2021/05/09 10:06:31;;;;;;;8.30;3.30;;;18.10;72.30;;;;;;5130435;27;20055;-70
2021/05/09 10:08:58;;;;;;;4.13;2.93;;;17.80;73.30;;;;;;5131705;27;20122;-74
2021/05/09 10:11:26;;;;;;;6.00;3.40;;;17.70;74.90;;;;;;5131846;27;20372;-73
2021/05/09 10:13:52;;;;;;;4.57;3.20;;;17.60;76.40;;;;;;5133591;27;20130;-73
2021/05/09 10:16:21;;;;;;;6.00;3.43;;;17.40;77.60;;;;;;5135801;27;20498;-73
2021/05/09 10:18:50;;;;;;;6.47;3.23;;;17.40;79.10;;;;;;5135946;27;20047;-72
2021/05/09 10:21:16;;;;;;;6.27;2.90;;;17.40;78.80;;;;;;5135031;27;20058;-72
2021/05/09 10:24:14;;;;;;;3.83;2.33;;;17.60;78.00;;;;;;5136154;27;20081;-73
2021/05/09 10:26:58;;;;;;;5.37;2.70;;;17.90;76.50;;;;;;5132802;27;20126;-73
2021/05/09 10:29:34;;;;;;;5.13;2.53;;;18.20;74.90;;;;;;5133333;27;20126;-74
2021/05/09 10:32:18;;;;;;;5.00;2.83;;;18.50;72.90;;;;;;5132546;27;20036;-73
2021/05/09 10:34:53;;;;;;;3.87;2.10;;;19.00;72.30;;;;;;5132117;27;20043;-69
2021/05/09 10:37:51;;;;;;;4.67;2.07;;;19.60;70.40;;;;;;5135449;27;20074;-69
2021/05/09 10:40:22;;;;;;;4.40;1.97;;;20.20;68.10;;;;;;5099552;27;20043;-69
2021/05/09 10:43:09;;;;;;;5.50;2.30;;;20.60;66.50;;;;;;5132432;27;20215;-69
2021/05/09 10:45:39;;;;;;;2.87;2.00;;;21.10;63.60;;;;;;5134283;27;20035;-69
2021/05/09 10:48:21;;;;;;;3.90;2.10;;;21.40;62.80;;;;;;5132329;27;20050;-70
2021/05/09 10:51:02;;;;;;;4.57;2.40;;;21.70;63.00;;;;;;5132788;27;20552;-69
2021/05/09 10:53:34;;;;;;;6.18;2.90;;;21.90;62.20;;;;;;5133230;27;20039;-69
2021/05/09 10:56:01;;;;;;;;;;;22.00;61.50;;;;;;5134709;27;20055;-68
2021/05/09 10:58:39;;;;;;;2.97;1.80;;;22.10;60.90;;;;;;5135075;27;19926;-70
2021/05/09 11:01:08;;;;;;;3.57;1.90;;;22.30;61.80;;;;;;5132711;27;20043;-68
2021/05/09 11:03:36;;;;;;;4.13;1.87;;;22.50;60.90;;;;;;5134331;27;20118;-71
2021/05/09 11:06:16;;;;;;;5.03;2.30;;;22.70;60.50;;;;;;5135207;27;20054;-71
2021/05/09 11:08:42;;;;;;;4.80;1.83;;;22.90;59.80;;;;;;5134831;27;20043;-72
2021/05/09 11:11:40;;;;;;;3.07;1.73;;;22.90;59.10;;;;;;5135158;27;20058;-70
2021/05/09 11:14:07;;;;;;;5.13;1.87;;;22.90;55.70;;;;;;5134790;27;20043;-70
2021/05/09 11:16:35;;;;;;;5.33;1.50;;;22.90;58.40;;;;;;5134019;27;20043;-69
2021/05/09 11:19:16;;;;;;;4.13;1.57;;;22.80;56.50;;;;;;5134536;27;20051;-72
2021/05/09 11:21:45;;;;;;;3.40;1.50;;;22.90;56.60;;;;;;5134419;27;20047;-69
2021/05/09 11:24:25;;;;;;;2.17;1.13;;;23.00;55.30;;;;;;5133721;27;20126;-72
2021/05/09 11:26:52;;;;;;;2.15;1.35;;;23.10;55.40;;;;;;5132460;27;20519;-73
2021/05/09 11:29:23;;;;;;;2.72;1.50;;;23.50;54.80;;;;;;5134384;27;20133;-72
2021/05/09 11:31:50;;;;;;;4.10;1.42;;;23.80;52.80;;;;;;5131499;27;20515;-72
2021/05/09 11:34:17;;;;;;;2.67;1.10;;;23.80;51.70;;;;;;5134623;27;20039;-73
2021/05/09 11:36:46;;;;;;;2.83;1.30;;;23.90;50.90;;;;;;5134350;27;20519;-72
2021/05/09 11:39:19;;;;;;;2.35;1.10;;;24.10;50.30;;;;;;5134549;27;20066;-72
2021/05/09 11:41:55;;;;;;;2.00;0.80;;;24.40;50.10;;;;;;5131643;27;20043;-72
2021/05/09 11:44:22;;;;;;;2.45;0.98;;;24.70;49.80;;;;;;5133164;27;20160;-73
2021/05/09 11:46:48;;;;;;;2.53;1.00;;;24.80;49.50;;;;;;5133653;27;20054;-74
2021/05/09 11:49:20;;;;;;;3.85;1.20;;;24.90;48.90;;;;;;5133603;27;20047;-73
2021/05/09 11:51:48;;;;;;;3.03;1.38;;;24.80;49.10;;;;;;5130432;27;20047;-73
2021/05/09 11:54:14;;;;;;;3.80;1.33;;;24.80;49.10;;;;;;5134009;27;20059;-73
2021/05/09 11:56:59;;;;;;;2.80;1.10;;;24.80;49.10;;;;;;5134338;27;20071;-75
2021/05/09 11:59:33;;;;;;;1.98;1.13;;;24.70;48.60;;;;;;5133297;27;20428;-72
2021/05/09 12:02:01;;;;;;;4.68;1.13;;;24.60;47.00;;;;;;5133095;27;20050;-72
2021/05/09 12:04:30;;;;;;;4.45;1.50;;;24.50;48.50;;;;;;5134016;27;20046;-73
2021/05/09 12:07:00;;;;;;;3.25;1.13;;;24.40;49.20;;;;;;5133674;27;20057;-71
2021/05/09 12:09:28;;;;;;;3.70;1.40;;;24.30;49.20;;;;;;5133816;27;20047;-73
2021/05/09 12:11:53;;;;;;;4.00;1.17;;;24.20;49.30;;;;;;5134024;27;20051;-70
2021/05/09 12:14:20;;;;;;;3.50;1.25;;;24.30;50.10;;;;;;5133380;27;20050;-69
2021/05/09 12:16:47;;;;;;;2.75;1.30;;;24.40;50.30;;;;;;5134095;27;20047;-70
2021/05/09 12:19:13;;;;;;;5.55;1.20;;;24.50;49.60;;;;;;5132652;27;20137;-70
2021/05/09 12:22:03;;;;;;;2.22;1.08;;;24.60;50.40;;;;;;5133880;27;20073;-70
2021/05/09 12:24:29;;;;;;;2.97;1.30;;;24.90;50.30;;;;;;5133383;27;20492;-70
2021/05/09 12:27:06;;;;;;;3.38;1.25;;;25.10;49.50;;;;;;5132490;27;20516;-71
2021/05/09 12:29:49;;;;;;;2.13;1.10;;;25.20;49.40;;;;;;5133184;27;20442;-72
2021/05/09 12:32:24;;;;;;;6.43;1.20;;;25.10;49.00;;;;;;5133457;27;20051;-72
2021/05/09 12:35:10;;;;;;;3.75;1.17;;;25.00;47.40;;;;;;5131496;27;20407;-74
2021/05/09 12:37:57;;;;;;;2.38;1.20;;;24.80;49.00;;;;;;5133162;27;20069;-73
2021/05/09 12:40:23;;;;;;;3.70;1.30;;;24.70;49.70;;;;;;5132587;27;20380;-73
2021/05/09 12:43:00;;;;;;;3.40;1.42;;;24.60;49.90;;;;;;5132779;27;20503;-72
2021/05/09 12:45:47;;;;;;;2.60;1.10;;;24.50;50.60;;;;;;5133502;27;20108;-74
2021/05/09 12:48:17;;;;;;;2.90;1.35;;;24.40;51.10;;;;;;5132524;27;20047;-73
2021/05/09 12:51:04;;;;;;;2.30;1.20;;;24.30;51.50;;;;;;5133032;27;20055;-73